DR5002 EDDH-LEPA
Flight info
| Callsign | DR5002 |
|---|---|
| Flight time | 2h 18m |
| Altitude | 23000 |
| Route | IDEKO7G IDEKO N850 PIROT/N0480F410 N850 XAROL/N0484F430 DCT BOMBI DCT GIGET DCT ABUKA DCT KRH DCT NATOR/N0480F410 DCT LUTIX DCT BENOT DCT NEMOS DCT GEVEA DCT INCUS DCT BALSI DCT RETNO DCT TUPOX DCT MTG DCT DIVKO DCT VATIR N852 VERSO L129 LUNIK |
| Aircraft | B788/H-SDE1E2E3FGHIJ2J3J4J5M1RWXY/LB1D1 |
Departure
| Time | 2026-04-26 17:21 |
|---|---|
| Airport | Hamburg Helmut Schmidt Airport (EDDH) |
Arrival
| Time | 2026-04-26 19:40 |
|---|---|
| Airport | Palma de Mallorca Airport (LEPA) |
| Time | Latitude | Longitude | Altitude | Speed | Heading |
|---|---|---|---|---|---|
| 2026-04-26 16:45 | 53.63106 | 10.00378 | 54 ft | 0 kts | 85° |
| 2026-04-26 17:07 | 53.63105 | 10.00366 | 54 ft | 2 kts | 85° |
| 2026-04-26 17:08 | 53.63104 | 10.00339 | 47 ft | 2 kts | 85° |
| 2026-04-26 17:08 | 53.63102 | 10.00311 | 46 ft | 2 kts | 85° |
| 2026-04-26 17:08 | 53.63103 | 10.00284 | 46 ft | 3 kts | 103° |
| 2026-04-26 17:08 | 53.63111 | 10.00256 | 46 ft | 3 kts | 123° |
| 2026-04-26 17:09 | 53.63123 | 10.00233 | 46 ft | 3 kts | 136° |
| 2026-04-26 17:09 | 53.63133 | 10.00222 | 46 ft | 3 kts | 157° |
| 2026-04-26 17:09 | 53.63143 | 10.00219 | 48 ft | 0 kts | 172° |
| 2026-04-26 17:13 | 53.63055 | 10.00206 | 48 ft | 14 kts | 200° |
| 2026-04-26 17:13 | 53.62957 | 10.00093 | 50 ft | 21 kts | 227° |
| 2026-04-26 17:13 | 53.62922 | 10.00004 | 48 ft | 0 kts | 244° |
| 2026-04-26 17:15 | 53.62915 | 9.99979 | 50 ft | 6 kts | 245° |
| 2026-04-26 17:15 | 53.62904 | 9.99940 | 48 ft | 0 kts | 246° |
| 2026-04-26 17:18 | 53.62904 | 9.99939 | 48 ft | 1 kts | 246° |
| 2026-04-26 17:18 | 53.62898 | 9.99916 | 48 ft | 4 kts | 245° |
| 2026-04-26 17:18 | 53.62880 | 9.99856 | 48 ft | 7 kts | 243° |
| 2026-04-26 17:18 | 53.62862 | 9.99776 | 51 ft | 7 kts | 277° |
| 2026-04-26 17:19 | 53.62888 | 9.99728 | 48 ft | 0 kts | 330° |
| 2026-04-26 17:20 | 53.62895 | 9.99721 | 46 ft | 9 kts | 330° |
| 2026-04-26 17:20 | 53.63134 | 9.99504 | 48 ft | 71 kts | 333° |
| 2026-04-26 17:21 | 53.63762 | 9.98965 | 48 ft | 130 kts | 332° |
| 2026-04-26 17:21 | 53.64694 | 9.98178 | 363 ft | 164 kts | 331° |
| 2026-04-26 17:21 | 53.65783 | 9.97314 | 1377 ft | 173 kts | 331° |
| 2026-04-26 17:21 | 53.66809 | 9.96609 | 2892 ft | 144 kts | 335° |
| 2026-04-26 17:22 | 53.67752 | 9.95932 | 3439 ft | 161 kts | 328° |
| 2026-04-26 17:22 | 53.68792 | 9.94832 | 3702 ft | 190 kts | 326° |
| 2026-04-26 17:22 | 53.69932 | 9.93659 | 4469 ft | 191 kts | 324° |
| 2026-04-26 17:22 | 53.70824 | 9.92037 | 5141 ft | 197 kts | 302° |
| 2026-04-26 17:23 | 53.71283 | 9.89759 | 5273 ft | 216 kts | 279° |
| 2026-04-26 17:23 | 53.71071 | 9.87221 | 5280 ft | 227 kts | 258° |
| 2026-04-26 17:23 | 53.70553 | 9.84656 | 5286 ft | 234 kts | 256° |
| 2026-04-26 17:23 | 53.70017 | 9.82057 | 5283 ft | 234 kts | 256° |
| 2026-04-26 17:24 | 53.69535 | 9.79419 | 5258 ft | 238 kts | 260° |
| 2026-04-26 17:24 | 53.69261 | 9.76679 | 5265 ft | 237 kts | 266° |
| 2026-04-26 17:24 | 53.69088 | 9.73913 | 5278 ft | 237 kts | 265° |
| 2026-04-26 17:24 | 53.68815 | 9.71165 | 5288 ft | 238 kts | 260° |
| 2026-04-26 17:25 | 53.68366 | 9.68460 | 5285 ft | 241 kts | 254° |
| 2026-04-26 17:25 | 53.67768 | 9.65803 | 5286 ft | 242 kts | 252° |
| 2026-04-26 17:25 | 53.67145 | 9.63210 | 5284 ft | 241 kts | 252° |
| 2026-04-26 17:25 | 53.66547 | 9.60569 | 5282 ft | 241 kts | 252° |
| 2026-04-26 17:26 | 53.65896 | 9.57952 | 5287 ft | 244 kts | 248° |
| 2026-04-26 17:26 | 53.65092 | 9.55420 | 5303 ft | 247 kts | 242° |
| 2026-04-26 17:26 | 53.64097 | 9.53049 | 5303 ft | 249 kts | 234° |
| 2026-04-26 17:26 | 53.62917 | 9.50888 | 5305 ft | 253 kts | 227° |
| 2026-04-26 17:27 | 53.61578 | 9.48937 | 5298 ft | 256 kts | 221° |
| 2026-04-26 17:27 | 53.60120 | 9.47208 | 5302 ft | 258 kts | 215° |
| 2026-04-26 17:27 | 53.58548 | 9.45743 | 5305 ft | 259 kts | 209° |
| 2026-04-26 17:27 | 53.56873 | 9.44558 | 5301 ft | 262 kts | 202° |
| 2026-04-26 17:28 | 53.55096 | 9.43711 | 5660 ft | 267 kts | 195° |
| 2026-04-26 17:28 | 53.53257 | 9.43228 | 6642 ft | 272 kts | 189° |
| 2026-04-26 17:28 | 53.51358 | 9.43124 | 7435 ft | 281 kts | 181° |
| 2026-04-26 17:28 | 53.49389 | 9.43462 | 8250 ft | 289 kts | 172° |
| 2026-04-26 17:29 | 53.47411 | 9.44306 | 9072 ft | 298 kts | 163° |
| 2026-04-26 17:29 | 53.46083 | 9.45117 | 9632 ft | 303 kts | 160° |
| 2026-04-26 17:29 | 53.43456 | 9.46903 | 10561 ft | 315 kts | 160° |
| 2026-04-26 17:29 | 53.41316 | 9.48240 | 10738 ft | 342 kts | 165° |
| 2026-04-26 17:30 | 53.38918 | 9.49221 | 10847 ft | 367 kts | 174° |
| 2026-04-26 17:30 | 53.36292 | 9.49471 | 10894 ft | 390 kts | 185° |
| 2026-04-26 17:30 | 53.33582 | 9.48964 | 11621 ft | 391 kts | 192° |
| 2026-04-26 17:30 | 53.30897 | 9.48145 | 12405 ft | 394 kts | 194° |
| 2026-04-26 17:31 | 53.28200 | 9.47216 | 13152 ft | 398 kts | 195° |
| 2026-04-26 17:31 | 53.25475 | 9.46236 | 13931 ft | 402 kts | 196° |
| 2026-04-26 17:31 | 53.22729 | 9.45204 | 14642 ft | 406 kts | 196° |
| 2026-04-26 17:31 | 53.19968 | 9.44112 | 15326 ft | 409 kts | 197° |
| 2026-04-26 17:32 | 53.17235 | 9.42967 | 15982 ft | 413 kts | 198° |
| 2026-04-26 17:32 | 53.14453 | 9.41718 | 16654 ft | 415 kts | 199° |
| 2026-04-26 17:32 | 53.11670 | 9.40355 | 17305 ft | 418 kts | 201° |
| 2026-04-26 17:32 | 53.08892 | 9.38855 | 17949 ft | 421 kts | 202° |
| 2026-04-26 17:33 | 53.06131 | 9.37205 | 18586 ft | 423 kts | 205° |
| 2026-04-26 17:33 | 53.03388 | 9.35369 | 19124 ft | 425 kts | 207° |
| 2026-04-26 17:33 | 53.00626 | 9.33279 | 19696 ft | 427 kts | 210° |
| 2026-04-26 17:34 | 52.95442 | 9.28562 | 20280 ft | 436 kts | 215° |
| 2026-04-26 17:34 | 52.92924 | 9.25836 | 20279 ft | 428 kts | 218° |
| 2026-04-26 17:34 | 52.90544 | 9.22911 | 20276 ft | 424 kts | 222° |
| 2026-04-26 17:34 | 52.88287 | 9.19748 | 20278 ft | 421 kts | 226° |
| 2026-04-26 17:35 | 52.86198 | 9.16407 | 20282 ft | 419 kts | 229° |
| 2026-04-26 17:35 | 52.84273 | 9.12887 | 20275 ft | 417 kts | 233° |
| 2026-04-26 17:35 | 52.82460 | 9.09082 | 20277 ft | 415 kts | 237° |
| 2026-04-26 17:35 | 52.80861 | 9.05209 | 20280 ft | 413 kts | 240° |
| 2026-04-26 17:36 | 52.79407 | 9.01133 | 20279 ft | 411 kts | 244° |
| 2026-04-26 17:36 | 52.78128 | 8.96923 | 20280 ft | 409 kts | 248° |
| 2026-04-26 17:36 | 52.76719 | 8.92835 | 20306 ft | 415 kts | 236° |
| 2026-04-26 17:36 | 52.74641 | 8.89452 | 20311 ft | 425 kts | 220° |
| 2026-04-26 17:37 | 52.72052 | 8.87021 | 20311 ft | 433 kts | 205° |
| 2026-04-26 17:37 | 52.69124 | 8.85710 | 20301 ft | 441 kts | 192° |
| 2026-04-26 17:37 | 52.66043 | 8.85538 | 20311 ft | 445 kts | 180° |
| 2026-04-26 17:38 | 52.59937 | 8.87518 | 20365 ft | 451 kts | 166° |
| 2026-04-26 17:38 | 52.56956 | 8.89159 | 20390 ft | 453 kts | 162° |
| 2026-04-26 17:38 | 52.53983 | 8.91072 | 20582 ft | 463 kts | 160° |
| 2026-04-26 17:38 | 52.51027 | 8.93146 | 21402 ft | 458 kts | 158° |
| 2026-04-26 17:39 | 52.48149 | 8.95292 | 22295 ft | 454 kts | 157° |
| 2026-04-26 17:39 | 52.45310 | 8.97524 | 22489 ft | 465 kts | 155° |
| 2026-04-26 17:39 | 52.42372 | 8.99951 | 22561 ft | 479 kts | 155° |
| 2026-04-26 17:39 | 52.39424 | 9.02446 | 23360 ft | 472 kts | 154° |
| 2026-04-26 17:40 | 52.36554 | 9.04928 | 24144 ft | 466 kts | 154° |
| 2026-04-26 17:40 | 52.34613 | 9.06614 | 24211 ft | 469 kts | 154° |
| 2026-04-26 17:40 | 52.30774 | 9.09871 | 23470 ft | 470 kts | 155° |
| 2026-04-26 17:40 | 52.27839 | 9.12287 | 22650 ft | 474 kts | 155° |
| 2026-04-26 17:41 | 52.24897 | 9.14645 | 22308 ft | 466 kts | 156° |
| 2026-04-26 17:41 | 52.22008 | 9.16894 | 22090 ft | 456 kts | 157° |
| 2026-04-26 17:41 | 52.19122 | 9.19033 | 21492 ft | 456 kts | 158° |
| 2026-04-26 17:41 | 52.16199 | 9.21083 | 20860 ft | 459 kts | 159° |
| 2026-04-26 17:42 | 52.13202 | 9.22904 | 21457 ft | 451 kts | 166° |
| 2026-04-26 17:42 | 52.10159 | 9.24110 | 22099 ft | 451 kts | 174° |
| 2026-04-26 17:42 | 52.07059 | 9.24546 | 22798 ft | 444 kts | 185° |
| 2026-04-26 17:42 | 52.04016 | 9.23977 | 23470 ft | 438 kts | 195° |
| 2026-04-26 17:43 | 52.01092 | 9.22856 | 24042 ft | 437 kts | 198° |
| 2026-04-26 17:43 | 51.98120 | 9.21671 | 24280 ft | 444 kts | 195° |
| 2026-04-26 17:43 | 51.95063 | 9.20818 | 24274 ft | 444 kts | 191° |
| 2026-04-26 17:43 | 51.92014 | 9.20235 | 24274 ft | 438 kts | 191° |
| 2026-04-26 17:44 | 51.89010 | 9.19528 | 24272 ft | 435 kts | 193° |
| 2026-04-26 17:44 | 51.86009 | 9.18840 | 24272 ft | 436 kts | 192° |
| 2026-04-26 17:44 | 51.83013 | 9.18091 | 24277 ft | 435 kts | 192° |
| 2026-04-26 17:44 | 51.80011 | 9.17397 | 24271 ft | 436 kts | 191° |
| 2026-04-26 17:45 | 51.76999 | 9.16788 | 24273 ft | 436 kts | 191° |
| 2026-04-26 17:45 | 51.74032 | 9.16174 | 24271 ft | 436 kts | 191° |
| 2026-04-26 17:45 | 51.70999 | 9.15495 | 24273 ft | 446 kts | 191° |
| 2026-04-26 17:45 | 51.67877 | 9.14797 | 24278 ft | 460 kts | 191° |
| 2026-04-26 17:46 | 51.64683 | 9.14119 | 24623 ft | 464 kts | 191° |
| 2026-04-26 17:46 | 51.61476 | 9.13445 | 24996 ft | 467 kts | 191° |
| 2026-04-26 17:46 | 51.58252 | 9.12746 | 25355 ft | 470 kts | 191° |
| 2026-04-26 17:46 | 51.54997 | 9.12036 | 25696 ft | 473 kts | 191° |
| 2026-04-26 17:47 | 51.51725 | 9.11334 | 26046 ft | 475 kts | 191° |
| 2026-04-26 17:47 | 51.49567 | 9.10763 | 26254 ft | 475 kts | 195° |
| 2026-04-26 17:47 | 51.45231 | 9.09268 | 26718 ft | 477 kts | 195° |
| 2026-04-26 17:47 | 51.41989 | 9.08160 | 27232 ft | 476 kts | 195° |
| 2026-04-26 17:48 | 51.38747 | 9.07063 | 27690 ft | 475 kts | 195° |
| 2026-04-26 17:48 | 51.35555 | 9.05982 | 28144 ft | 475 kts | 195° |
| 2026-04-26 17:48 | 51.32326 | 9.04885 | 28608 ft | 474 kts | 195° |
| 2026-04-26 17:48 | 51.29058 | 9.04090 | 29034 ft | 476 kts | 190° |
| 2026-04-26 17:49 | 51.25768 | 9.03445 | 29474 ft | 476 kts | 190° |
| 2026-04-26 17:49 | 51.22480 | 9.02803 | 29927 ft | 475 kts | 190° |
| 2026-04-26 17:49 | 51.19206 | 9.02143 | 30361 ft | 475 kts | 190° |
| 2026-04-26 17:49 | 51.15931 | 9.01480 | 30759 ft | 474 kts | 190° |
| 2026-04-26 17:50 | 51.13768 | 9.01050 | 31028 ft | 473 kts | 190° |
| 2026-04-26 17:50 | 51.09391 | 9.00185 | 31256 ft | 477 kts | 190° |
| 2026-04-26 17:50 | 51.02844 | 8.98886 | 31259 ft | 469 kts | 190° |
| 2026-04-26 17:51 | 50.96393 | 8.97608 | 31258 ft | 466 kts | 190° |
| 2026-04-26 17:51 | 50.90014 | 8.96350 | 31260 ft | 465 kts | 190° |
| 2026-04-26 17:52 | 50.83586 | 8.95085 | 31257 ft | 466 kts | 189° |
| 2026-04-26 17:52 | 50.77156 | 8.93824 | 31254 ft | 466 kts | 189° |
| 2026-04-26 17:53 | 50.70729 | 8.92566 | 31255 ft | 465 kts | 189° |
| 2026-04-26 17:54 | 50.61087 | 8.90686 | 31250 ft | 466 kts | 189° |
| 2026-04-26 17:54 | 50.54657 | 8.89436 | 31254 ft | 466 kts | 189° |
| 2026-04-26 17:55 | 50.48216 | 8.88188 | 31252 ft | 466 kts | 189° |
| 2026-04-26 17:55 | 50.41817 | 8.86952 | 31244 ft | 467 kts | 189° |
| 2026-04-26 17:56 | 50.35368 | 8.85709 | 31244 ft | 467 kts | 189° |
| 2026-04-26 17:57 | 50.22510 | 8.83241 | 31240 ft | 466 kts | 189° |
| 2026-04-26 17:57 | 50.16023 | 8.82000 | 31239 ft | 467 kts | 189° |
| 2026-04-26 17:58 | 50.03186 | 8.79544 | 31237 ft | 466 kts | 190° |
| 2026-04-26 17:59 | 49.93546 | 8.77495 | 31233 ft | 467 kts | 189° |
| 2026-04-26 17:59 | 49.87105 | 8.76179 | 31234 ft | 466 kts | 190° |
| 2026-04-26 18:00 | 49.80846 | 8.74872 | 31229 ft | 467 kts | 190° |
| 2026-04-26 18:00 | 49.74396 | 8.73551 | 31235 ft | 467 kts | 190° |
| 2026-04-26 18:01 | 49.67955 | 8.72223 | 31222 ft | 467 kts | 189° |
| 2026-04-26 18:01 | 49.61507 | 8.70932 | 31211 ft | 467 kts | 189° |
| 2026-04-26 18:02 | 49.57200 | 8.70061 | 31212 ft | 467 kts | 189° |
| 2026-04-26 18:02 | 49.48621 | 8.68337 | 31210 ft | 467 kts | 189° |
| 2026-04-26 18:03 | 49.42192 | 8.67042 | 31209 ft | 466 kts | 190° |
| 2026-04-26 18:03 | 49.35762 | 8.65735 | 31207 ft | 466 kts | 189° |
| 2026-04-26 18:04 | 49.29333 | 8.64441 | 31209 ft | 466 kts | 189° |
| 2026-04-26 18:05 | 49.19693 | 8.62501 | 31213 ft | 466 kts | 189° |
| 2026-04-26 18:05 | 49.13280 | 8.61216 | 31220 ft | 466 kts | 189° |
| 2026-04-26 18:06 | 49.06883 | 8.59937 | 31223 ft | 466 kts | 189° |
| 2026-04-26 18:06 | 49.00449 | 8.58654 | 31216 ft | 466 kts | 189° |
| 2026-04-26 18:07 | 48.94108 | 8.56737 | 31226 ft | 464 kts | 194° |
| 2026-04-26 18:07 | 48.88814 | 8.55025 | 31219 ft | 465 kts | 194° |
| 2026-04-26 18:08 | 48.82490 | 8.52983 | 31212 ft | 465 kts | 194° |
| 2026-04-26 18:08 | 48.76157 | 8.50941 | 31213 ft | 465 kts | 194° |
| 2026-04-26 18:09 | 48.69828 | 8.48908 | 31204 ft | 465 kts | 194° |
| 2026-04-26 18:09 | 48.63499 | 8.46878 | 31204 ft | 465 kts | 194° |
| 2026-04-26 18:10 | 48.57216 | 8.44869 | 31194 ft | 465 kts | 194° |
| 2026-04-26 18:10 | 48.50888 | 8.42849 | 31200 ft | 465 kts | 194° |
| 2026-04-26 18:11 | 48.44563 | 8.40837 | 31200 ft | 465 kts | 194° |
| 2026-04-26 18:11 | 48.38225 | 8.38825 | 31202 ft | 465 kts | 194° |
| 2026-04-26 18:12 | 48.31884 | 8.36819 | 31199 ft | 466 kts | 194° |
| 2026-04-26 18:12 | 48.25580 | 8.34828 | 31193 ft | 466 kts | 194° |
| 2026-04-26 18:13 | 48.19206 | 8.32796 | 31200 ft | 464 kts | 198° |
| 2026-04-26 18:13 | 48.16199 | 8.31143 | 31220 ft | 458 kts | 211° |
| 2026-04-26 18:13 | 48.13466 | 8.28716 | 31218 ft | 457 kts | 216° |
| 2026-04-26 18:14 | 48.08152 | 8.23576 | 31210 ft | 459 kts | 216° |
| 2026-04-26 18:14 | 48.02784 | 8.18409 | 31207 ft | 459 kts | 216° |
| 2026-04-26 18:15 | 47.97409 | 8.13246 | 31201 ft | 459 kts | 216° |
| 2026-04-26 18:15 | 47.92030 | 8.08091 | 31186 ft | 460 kts | 216° |
| 2026-04-26 18:16 | 47.86651 | 8.02951 | 31181 ft | 459 kts | 216° |
| 2026-04-26 18:16 | 47.78581 | 7.95262 | 31178 ft | 459 kts | 216° |
| 2026-04-26 18:17 | 47.73241 | 7.90190 | 31167 ft | 458 kts | 216° |
| 2026-04-26 18:17 | 47.67865 | 7.85096 | 31168 ft | 458 kts | 216° |
| 2026-04-26 18:18 | 47.62490 | 7.80017 | 31153 ft | 458 kts | 216° |
| 2026-04-26 18:18 | 47.57108 | 7.74942 | 31152 ft | 459 kts | 216° |
| 2026-04-26 18:19 | 47.51725 | 7.69879 | 31150 ft | 458 kts | 216° |
| 2026-04-26 18:19 | 47.46345 | 7.64833 | 31165 ft | 458 kts | 216° |
| 2026-04-26 18:20 | 47.40965 | 7.59797 | 31162 ft | 458 kts | 216° |
| 2026-04-26 18:20 | 47.36492 | 7.55620 | 31159 ft | 458 kts | 216° |
| 2026-04-26 18:21 | 47.30227 | 7.49785 | 31153 ft | 458 kts | 215° |
| 2026-04-26 18:21 | 47.24837 | 7.44778 | 31162 ft | 457 kts | 215° |
| 2026-04-26 18:22 | 47.19459 | 7.39793 | 31152 ft | 457 kts | 215° |
| 2026-04-26 18:22 | 47.14722 | 7.33770 | 31174 ft | 449 kts | 235° |
| 2026-04-26 18:23 | 47.10816 | 7.26569 | 31166 ft | 451 kts | 234° |
| 2026-04-26 18:23 | 47.06904 | 7.19361 | 31168 ft | 452 kts | 234° |
| 2026-04-26 18:24 | 47.02972 | 7.12155 | 31193 ft | 452 kts | 234° |
| 2026-04-26 18:24 | 46.99041 | 7.04957 | 31168 ft | 452 kts | 234° |
| 2026-04-26 18:25 | 46.95102 | 6.97770 | 31158 ft | 453 kts | 234° |
| 2026-04-26 18:25 | 46.91098 | 6.90681 | 31179 ft | 455 kts | 226° |
| 2026-04-26 18:26 | 46.86208 | 6.84689 | 31162 ft | 458 kts | 221° |
| 2026-04-26 18:26 | 46.81262 | 6.78816 | 31164 ft | 458 kts | 222° |
| 2026-04-26 18:27 | 46.76328 | 6.72938 | 31165 ft | 458 kts | 221° |
| 2026-04-26 18:27 | 46.71385 | 6.67084 | 31157 ft | 457 kts | 221° |
| 2026-04-26 18:28 | 46.66477 | 6.61275 | 31155 ft | 458 kts | 221° |
| 2026-04-26 18:28 | 46.61498 | 6.55403 | 31151 ft | 458 kts | 221° |
| 2026-04-26 18:29 | 46.56579 | 6.49612 | 31144 ft | 458 kts | 221° |
| 2026-04-26 18:29 | 46.51619 | 6.43788 | 31142 ft | 458 kts | 221° |
| 2026-04-26 18:30 | 46.46662 | 6.37981 | 31135 ft | 458 kts | 221° |
| 2026-04-26 18:30 | 46.41697 | 6.32179 | 31131 ft | 458 kts | 221° |
| 2026-04-26 18:31 | 46.36712 | 6.26368 | 31128 ft | 459 kts | 221° |
| 2026-04-26 18:31 | 46.31717 | 6.20558 | 31121 ft | 459 kts | 221° |
| 2026-04-26 18:32 | 46.26636 | 6.14997 | 31159 ft | 469 kts | 210° |
| 2026-04-26 18:32 | 46.23618 | 6.13092 | 31240 ft | 479 kts | 197° |
| 2026-04-26 18:32 | 46.20291 | 6.12071 | 31299 ft | 487 kts | 190° |
| 2026-04-26 18:33 | 46.13538 | 6.10586 | 31338 ft | 502 kts | 189° |
| 2026-04-26 18:33 | 46.06615 | 6.09045 | 32146 ft | 497 kts | 189° |
| 2026-04-26 18:34 | 46.03195 | 6.08281 | 32568 ft | 495 kts | 189° |
| 2026-04-26 18:34 | 45.99796 | 6.07536 | 32922 ft | 494 kts | 189° |
| 2026-04-26 18:34 | 45.96411 | 6.06793 | 33315 ft | 493 kts | 189° |
| 2026-04-26 18:34 | 45.93017 | 6.06040 | 33687 ft | 491 kts | 189° |
| 2026-04-26 18:35 | 45.89637 | 6.05292 | 34091 ft | 489 kts | 189° |
| 2026-04-26 18:35 | 45.86204 | 6.04537 | 34125 ft | 494 kts | 189° |
| 2026-04-26 18:35 | 45.79464 | 6.03051 | 34120 ft | 487 kts | 189° |
| 2026-04-26 18:36 | 45.72727 | 6.01560 | 34093 ft | 483 kts | 189° |
| 2026-04-26 18:36 | 45.66136 | 6.00111 | 34095 ft | 482 kts | 189° |
| 2026-04-26 18:37 | 45.59508 | 5.98654 | 34093 ft | 483 kts | 189° |
| 2026-04-26 18:37 | 45.52848 | 5.97195 | 34103 ft | 482 kts | 189° |
| 2026-04-26 18:38 | 45.46278 | 5.95621 | 34126 ft | 481 kts | 193° |
| 2026-04-26 18:38 | 45.39712 | 5.93565 | 34119 ft | 481 kts | 193° |
| 2026-04-26 18:39 | 45.33158 | 5.91524 | 34130 ft | 480 kts | 193° |
| 2026-04-26 18:39 | 45.26644 | 5.89492 | 34136 ft | 479 kts | 193° |
| 2026-04-26 18:40 | 45.20126 | 5.87471 | 34143 ft | 479 kts | 193° |
| 2026-04-26 18:40 | 45.13639 | 5.85458 | 34149 ft | 478 kts | 193° |
| 2026-04-26 18:41 | 45.07170 | 5.83460 | 34150 ft | 476 kts | 193° |
| 2026-04-26 18:41 | 45.00678 | 5.81457 | 34150 ft | 476 kts | 193° |
| 2026-04-26 18:42 | 44.94210 | 5.79467 | 34150 ft | 475 kts | 193° |
| 2026-04-26 18:42 | 44.87801 | 5.77499 | 34149 ft | 474 kts | 193° |
| 2026-04-26 18:43 | 44.81362 | 5.75527 | 34142 ft | 474 kts | 193° |
| 2026-04-26 18:43 | 44.74833 | 5.73532 | 34135 ft | 473 kts | 193° |
| 2026-04-26 18:44 | 44.68435 | 5.71581 | 34131 ft | 473 kts | 193° |
| 2026-04-26 18:44 | 44.62007 | 5.69626 | 34127 ft | 473 kts | 193° |
| 2026-04-26 18:45 | 44.55533 | 5.67660 | 34127 ft | 473 kts | 193° |
| 2026-04-26 18:45 | 44.49092 | 5.65710 | 34125 ft | 473 kts | 193° |
| 2026-04-26 18:46 | 44.42709 | 5.63781 | 34122 ft | 473 kts | 193° |
| 2026-04-26 18:46 | 44.36354 | 5.61469 | 34139 ft | 471 kts | 202° |
| 2026-04-26 18:47 | 44.30246 | 5.58101 | 34120 ft | 472 kts | 202° |
| 2026-04-26 18:47 | 44.24134 | 5.54759 | 34122 ft | 472 kts | 202° |
| 2026-04-26 18:48 | 44.18013 | 5.51414 | 34122 ft | 472 kts | 202° |
| 2026-04-26 18:48 | 44.11896 | 5.48079 | 34117 ft | 472 kts | 202° |
| 2026-04-26 18:49 | 44.05827 | 5.44779 | 34116 ft | 471 kts | 202° |
| 2026-04-26 18:49 | 43.99713 | 5.41460 | 34116 ft | 471 kts | 202° |
| 2026-04-26 18:50 | 43.93614 | 5.38157 | 34110 ft | 470 kts | 202° |
| 2026-04-26 18:50 | 43.87522 | 5.34861 | 34106 ft | 470 kts | 202° |
| 2026-04-26 18:51 | 43.81418 | 5.31569 | 34116 ft | 471 kts | 202° |
| 2026-04-26 18:51 | 43.75354 | 5.28303 | 34121 ft | 471 kts | 203° |
| 2026-04-26 18:52 | 43.70238 | 5.25555 | 34125 ft | 471 kts | 203° |
| 2026-04-26 18:52 | 43.63152 | 5.21756 | 34128 ft | 470 kts | 203° |
| 2026-04-26 18:53 | 43.57060 | 5.18498 | 34126 ft | 469 kts | 203° |
| 2026-04-26 18:53 | 43.50973 | 5.15249 | 34122 ft | 469 kts | 203° |
| 2026-04-26 18:54 | 43.44889 | 5.12010 | 34119 ft | 468 kts | 203° |
| 2026-04-26 18:54 | 43.38852 | 5.08666 | 34143 ft | 466 kts | 211° |
| 2026-04-26 18:55 | 43.33484 | 5.03831 | 34136 ft | 465 kts | 217° |
| 2026-04-26 18:55 | 43.28150 | 4.98798 | 34134 ft | 465 kts | 217° |
| 2026-04-26 18:56 | 43.22817 | 4.93790 | 34136 ft | 464 kts | 217° |
| 2026-04-26 18:56 | 43.17492 | 4.88792 | 34138 ft | 464 kts | 217° |
| 2026-04-26 18:57 | 43.13970 | 4.85495 | 34137 ft | 463 kts | 217° |
| 2026-04-26 18:57 | 43.06853 | 4.78845 | 34132 ft | 463 kts | 217° |
| 2026-04-26 18:58 | 43.01323 | 4.74430 | 34137 ft | 465 kts | 212° |
| 2026-04-26 18:58 | 42.96589 | 4.70840 | 34133 ft | 464 kts | 212° |
| 2026-04-26 18:59 | 42.90992 | 4.66599 | 34127 ft | 463 kts | 212° |
| 2026-04-26 18:59 | 42.85360 | 4.62345 | 34128 ft | 463 kts | 212° |
| 2026-04-26 19:00 | 42.79723 | 4.58093 | 34123 ft | 463 kts | 212° |
| 2026-04-26 19:00 | 42.74086 | 4.53853 | 34119 ft | 463 kts | 212° |
| 2026-04-26 19:01 | 42.68443 | 4.49615 | 34122 ft | 463 kts | 212° |
| 2026-04-26 19:01 | 42.62805 | 4.45391 | 34121 ft | 463 kts | 212° |
| 2026-04-26 19:02 | 42.57174 | 4.41180 | 34122 ft | 462 kts | 212° |
| 2026-04-26 19:02 | 42.52490 | 4.37684 | 34120 ft | 463 kts | 212° |
| 2026-04-26 19:03 | 42.45935 | 4.32803 | 34116 ft | 462 kts | 212° |
| 2026-04-26 19:03 | 42.40298 | 4.28614 | 34122 ft | 462 kts | 212° |
| 2026-04-26 19:04 | 42.34661 | 4.24434 | 34122 ft | 462 kts | 212° |
| 2026-04-26 19:04 | 42.29031 | 4.20268 | 34121 ft | 461 kts | 212° |
| 2026-04-26 19:05 | 42.20572 | 4.14024 | 34120 ft | 463 kts | 212° |
| 2026-04-26 19:06 | 42.14951 | 4.09885 | 34118 ft | 464 kts | 212° |
| 2026-04-26 19:06 | 42.09282 | 4.05726 | 34117 ft | 464 kts | 211° |
| 2026-04-26 19:07 | 42.03607 | 4.01568 | 34111 ft | 464 kts | 211° |
| 2026-04-26 19:07 | 41.98019 | 3.97485 | 34097 ft | 449 kts | 211° |
| 2026-04-26 19:08 | 41.92533 | 3.93743 | 34100 ft | 437 kts | 201° |
| 2026-04-26 19:08 | 41.86649 | 3.92038 | 34133 ft | 428 kts | 192° |
| 2026-04-26 19:09 | 41.80858 | 3.90707 | 34092 ft | 417 kts | 192° |
| 2026-04-26 19:09 | 41.75245 | 3.89406 | 34065 ft | 408 kts | 192° |
| 2026-04-26 19:10 | 41.69699 | 3.88128 | 33870 ft | 403 kts | 192° |
| 2026-04-26 19:10 | 41.66931 | 3.87489 | 33685 ft | 404 kts | 192° |
| 2026-04-26 19:10 | 41.64164 | 3.86852 | 33482 ft | 404 kts | 192° |
| 2026-04-26 19:10 | 41.61394 | 3.86215 | 33293 ft | 404 kts | 192° |
| 2026-04-26 19:11 | 41.58622 | 3.85579 | 33092 ft | 405 kts | 192° |
| 2026-04-26 19:11 | 41.55844 | 3.84941 | 32900 ft | 405 kts | 192° |
| 2026-04-26 19:11 | 41.53066 | 3.84303 | 32707 ft | 406 kts | 192° |
| 2026-04-26 19:11 | 41.50319 | 3.83674 | 32515 ft | 406 kts | 192° |
| 2026-04-26 19:12 | 41.47535 | 3.83036 | 32316 ft | 407 kts | 192° |
| 2026-04-26 19:12 | 41.44745 | 3.82398 | 32125 ft | 407 kts | 192° |
| 2026-04-26 19:12 | 41.41952 | 3.81760 | 31923 ft | 408 kts | 192° |
| 2026-04-26 19:12 | 41.39156 | 3.81121 | 31729 ft | 408 kts | 192° |
| 2026-04-26 19:13 | 41.36355 | 3.80482 | 31534 ft | 409 kts | 192° |
| 2026-04-26 19:13 | 41.33551 | 3.79843 | 31332 ft | 409 kts | 192° |
| 2026-04-26 19:13 | 41.30745 | 3.79203 | 31145 ft | 410 kts | 192° |
| 2026-04-26 19:13 | 41.27935 | 3.78564 | 30953 ft | 410 kts | 192° |
| 2026-04-26 19:14 | 41.25126 | 3.77925 | 30756 ft | 410 kts | 192° |
| 2026-04-26 19:14 | 41.22309 | 3.77285 | 30573 ft | 411 kts | 192° |
| 2026-04-26 19:14 | 41.19491 | 3.76645 | 30382 ft | 411 kts | 192° |
| 2026-04-26 19:14 | 41.17624 | 3.76222 | 30253 ft | 411 kts | 192° |
| 2026-04-26 19:15 | 41.13965 | 3.75013 | 29977 ft | 408 kts | 203° |
| 2026-04-26 19:15 | 41.11315 | 3.73640 | 29678 ft | 410 kts | 203° |
| 2026-04-26 19:15 | 41.08655 | 3.72264 | 29428 ft | 411 kts | 203° |
| 2026-04-26 19:15 | 41.06000 | 3.70895 | 28965 ft | 409 kts | 202° |
| 2026-04-26 19:16 | 41.03335 | 3.69523 | 28193 ft | 412 kts | 202° |
| 2026-04-26 19:16 | 41.00655 | 3.68144 | 27479 ft | 414 kts | 202° |
| 2026-04-26 19:16 | 40.97965 | 3.66761 | 26744 ft | 416 kts | 202° |
| 2026-04-26 19:16 | 40.95264 | 3.65372 | 25967 ft | 416 kts | 202° |
| 2026-04-26 19:17 | 40.92556 | 3.63983 | 24844 ft | 419 kts | 202° |
| 2026-04-26 19:17 | 40.89826 | 3.62582 | 23739 ft | 423 kts | 201° |
| 2026-04-26 19:17 | 40.87073 | 3.61172 | 22421 ft | 426 kts | 201° |
| 2026-04-26 19:17 | 40.84305 | 3.59755 | 21103 ft | 428 kts | 201° |
| 2026-04-26 19:18 | 40.81521 | 3.58331 | 19956 ft | 428 kts | 201° |
| 2026-04-26 19:18 | 40.78793 | 3.56937 | 20086 ft | 425 kts | 201° |
| 2026-04-26 19:18 | 40.76029 | 3.55525 | 20159 ft | 437 kts | 201° |
| 2026-04-26 19:18 | 40.73204 | 3.54084 | 20156 ft | 432 kts | 201° |
| 2026-04-26 19:19 | 40.70406 | 3.52659 | 20154 ft | 431 kts | 201° |
| 2026-04-26 19:19 | 40.67609 | 3.51234 | 20157 ft | 431 kts | 201° |
| 2026-04-26 19:19 | 40.64809 | 3.49810 | 20155 ft | 431 kts | 201° |
| 2026-04-26 19:19 | 40.62008 | 3.48386 | 20152 ft | 432 kts | 201° |
| 2026-04-26 19:20 | 40.59204 | 3.46962 | 20153 ft | 432 kts | 201° |
| 2026-04-26 19:20 | 40.57350 | 3.46021 | 20152 ft | 432 kts | 201° |
| 2026-04-26 19:20 | 40.53602 | 3.44121 | 20150 ft | 431 kts | 201° |
| 2026-04-26 19:20 | 40.50802 | 3.42703 | 20150 ft | 431 kts | 201° |
| 2026-04-26 19:21 | 40.48002 | 3.41286 | 20155 ft | 431 kts | 201° |
| 2026-04-26 19:21 | 40.45239 | 3.39889 | 20145 ft | 432 kts | 201° |
| 2026-04-26 19:21 | 40.42434 | 3.38473 | 20153 ft | 432 kts | 200° |
| 2026-04-26 19:21 | 40.39629 | 3.37057 | 20143 ft | 432 kts | 200° |
| 2026-04-26 19:22 | 40.36825 | 3.35643 | 20153 ft | 432 kts | 200° |
| 2026-04-26 19:22 | 40.34020 | 3.34230 | 20157 ft | 432 kts | 200° |
| 2026-04-26 19:22 | 40.31212 | 3.32817 | 20155 ft | 432 kts | 200° |
| 2026-04-26 19:22 | 40.28405 | 3.31405 | 20154 ft | 432 kts | 200° |
| 2026-04-26 19:23 | 40.25597 | 3.30001 | 20152 ft | 432 kts | 199° |
| 2026-04-26 19:23 | 40.22686 | 3.29118 | 20025 ft | 430 kts | 185° |
| 2026-04-26 19:23 | 40.19700 | 3.29033 | 19872 ft | 427 kts | 177° |
| 2026-04-26 19:23 | 40.16764 | 3.29264 | 18828 ft | 423 kts | 174° |
| 2026-04-26 19:24 | 40.13888 | 3.29636 | 17864 ft | 418 kts | 173° |
| 2026-04-26 19:24 | 40.11017 | 3.30061 | 16908 ft | 412 kts | 172° |
| 2026-04-26 19:24 | 40.05403 | 3.30935 | 15121 ft | 400 kts | 172° |
| 2026-04-26 19:25 | 40.02701 | 3.31356 | 14411 ft | 379 kts | 172° |
| 2026-04-26 19:25 | 40.01009 | 3.31615 | 14131 ft | 360 kts | 172° |
| 2026-04-26 19:25 | 39.97845 | 3.32090 | 13737 ft | 324 kts | 172° |
| 2026-04-26 19:25 | 39.95700 | 3.32404 | 13587 ft | 297 kts | 172° |
| 2026-04-26 19:26 | 39.93738 | 3.32686 | 13519 ft | 271 kts | 172° |
| 2026-04-26 19:26 | 39.91944 | 3.32941 | 13435 ft | 249 kts | 172° |
| 2026-04-26 19:26 | 39.90257 | 3.33179 | 12933 ft | 247 kts | 172° |
| 2026-04-26 19:26 | 39.88555 | 3.33425 | 12453 ft | 245 kts | 172° |
| 2026-04-26 19:27 | 39.86870 | 3.33674 | 11974 ft | 243 kts | 172° |
| 2026-04-26 19:27 | 39.85198 | 3.33926 | 11505 ft | 241 kts | 172° |
| 2026-04-26 19:27 | 39.83542 | 3.34182 | 11059 ft | 239 kts | 172° |
| 2026-04-26 19:27 | 39.81902 | 3.34443 | 10607 ft | 237 kts | 172° |
| 2026-04-26 19:28 | 39.80274 | 3.34713 | 10177 ft | 235 kts | 172° |
| 2026-04-26 19:28 | 39.78661 | 3.34992 | 9700 ft | 233 kts | 172° |
| 2026-04-26 19:28 | 39.76989 | 3.35277 | 8565 ft | 255 kts | 172° |
| 2026-04-26 19:28 | 39.75269 | 3.35553 | 8347 ft | 240 kts | 172° |
| 2026-04-26 19:29 | 39.73678 | 3.35795 | 8154 ft | 226 kts | 172° |
| 2026-04-26 19:29 | 39.72112 | 3.36028 | 7683 ft | 226 kts | 172° |
| 2026-04-26 19:29 | 39.70554 | 3.36255 | 7263 ft | 225 kts | 172° |
| 2026-04-26 19:29 | 39.69002 | 3.36472 | 6831 ft | 223 kts | 172° |
| 2026-04-26 19:30 | 39.67464 | 3.36677 | 6413 ft | 222 kts | 172° |
| 2026-04-26 19:30 | 39.65939 | 3.36876 | 6147 ft | 215 kts | 172° |
| 2026-04-26 19:30 | 39.64471 | 3.37025 | 6127 ft | 209 kts | 180° |
| 2026-04-26 19:30 | 39.63565 | 3.36659 | 6110 ft | 207 kts | 215° |
| 2026-04-26 19:31 | 39.62628 | 3.34517 | 5390 ft | 224 kts | 264° |
| 2026-04-26 19:31 | 39.62600 | 3.32465 | 5137 ft | 226 kts | 271° |
| 2026-04-26 19:31 | 39.62640 | 3.30435 | 4934 ft | 225 kts | 272° |
| 2026-04-26 19:31 | 39.62684 | 3.28405 | 4728 ft | 225 kts | 272° |
| 2026-04-26 19:32 | 39.62729 | 3.26381 | 4550 ft | 224 kts | 272° |
| 2026-04-26 19:32 | 39.62774 | 3.24366 | 4343 ft | 223 kts | 272° |
| 2026-04-26 19:32 | 39.62817 | 3.22359 | 4172 ft | 222 kts | 272° |
| 2026-04-26 19:32 | 39.62861 | 3.20366 | 4159 ft | 222 kts | 272° |
| 2026-04-26 19:33 | 39.62903 | 3.18374 | 4157 ft | 226 kts | 272° |
| 2026-04-26 19:33 | 39.62947 | 3.16328 | 4161 ft | 227 kts | 272° |
| 2026-04-26 19:33 | 39.62989 | 3.14314 | 4097 ft | 222 kts | 272° |
| 2026-04-26 19:33 | 39.63033 | 3.12317 | 3922 ft | 221 kts | 272° |
| 2026-04-26 19:34 | 39.63077 | 3.10328 | 3781 ft | 220 kts | 272° |
| 2026-04-26 19:34 | 39.63121 | 3.08352 | 3533 ft | 216 kts | 272° |
| 2026-04-26 19:34 | 39.63163 | 3.06405 | 3143 ft | 211 kts | 272° |
| 2026-04-26 19:34 | 39.63202 | 3.04552 | 3130 ft | 201 kts | 272° |
| 2026-04-26 19:35 | 39.63238 | 3.02784 | 3124 ft | 191 kts | 272° |
| 2026-04-26 19:35 | 39.63272 | 3.01092 | 3110 ft | 185 kts | 272° |
| 2026-04-26 19:35 | 39.63302 | 2.99446 | 2846 ft | 187 kts | 272° |
| 2026-04-26 19:35 | 39.63334 | 2.97696 | 2242 ft | 201 kts | 272° |
| 2026-04-26 19:36 | 39.63316 | 2.95906 | 2074 ft | 196 kts | 265° |
| 2026-04-26 19:36 | 39.63199 | 2.94777 | 2135 ft | 186 kts | 263° |
| 2026-04-26 19:36 | 39.62806 | 2.92611 | 1933 ft | 187 kts | 248° |
| 2026-04-26 19:36 | 39.62280 | 2.91038 | 1719 ft | 192 kts | 245° |
| 2026-04-26 19:37 | 39.61728 | 2.89474 | 1626 ft | 189 kts | 244° |
| 2026-04-26 19:37 | 39.61176 | 2.87956 | 1572 ft | 185 kts | 242° |
| 2026-04-26 19:37 | 39.60527 | 2.86520 | 1422 ft | 185 kts | 238° |
| 2026-04-26 19:37 | 39.59854 | 2.85092 | 1253 ft | 186 kts | 235° |
| 2026-04-26 19:38 | 39.59113 | 2.83717 | 1136 ft | 184 kts | 234° |
| 2026-04-26 19:38 | 39.58407 | 2.82379 | 1028 ft | 176 kts | 239° |
| 2026-04-26 19:38 | 39.57793 | 2.81006 | 788 ft | 174 kts | 239° |
| 2026-04-26 19:38 | 39.57198 | 2.79721 | 656 ft | 167 kts | 239° |
| 2026-04-26 19:39 | 39.56602 | 2.78433 | 480 ft | 163 kts | 238° |
| 2026-04-26 19:39 | 39.56004 | 2.77157 | 263 ft | 164 kts | 238° |
| 2026-04-26 19:39 | 39.55407 | 2.75917 | 51 ft | 164 kts | 237° |
| 2026-04-26 19:39 | 39.54912 | 2.74868 | 30 ft | 100 kts | 239° |
| 2026-04-26 19:40 | 39.54752 | 2.74502 | 34 ft | 5 kts | 242° |
| 2026-04-26 19:40 | 39.54750 | 2.74497 | 34 ft | 2 kts | 242° |
| 2026-04-26 19:40 | 39.54735 | 2.74463 | 35 ft | 6 kts | 241° |
| 2026-04-26 19:40 | 39.54705 | 2.74394 | 36 ft | 12 kts | 238° |
| 2026-04-26 19:41 | 39.54648 | 2.74275 | 37 ft | 19 kts | 238° |
| 2026-04-26 19:41 | 39.54580 | 2.74104 | 37 ft | 23 kts | 246° |
| 2026-04-26 19:41 | 39.54550 | 2.73909 | 36 ft | 18 kts | 268° |
| 2026-04-26 19:41 | 39.54549 | 2.73888 | 36 ft | 0 kts | 268° |
| 2026-04-26 19:42 | 39.54549 | 2.73886 | 36 ft | 2 kts | 268° |
| 2026-04-26 19:42 | 39.54548 | 2.73835 | 37 ft | 10 kts | 268° |
| 2026-04-26 19:43 | 39.54566 | 2.73758 | 37 ft | 7 kts | 322° |
| 2026-04-26 19:43 | 39.54593 | 2.73751 | 37 ft | 4 kts | 19° |
| 2026-04-26 19:43 | 39.54618 | 2.73778 | 36 ft | 7 kts | 51° |
| 2026-04-26 19:43 | 39.54664 | 2.73857 | 37 ft | 15 kts | 54° |
| 2026-04-26 19:44 | 39.54714 | 2.73949 | 36 ft | 0 kts | 55° |
| 2026-04-26 19:44 | 39.54718 | 2.73954 | 36 ft | 2 kts | 34° |
| 2026-04-26 19:44 | 39.54727 | 2.73958 | 36 ft | 1 kts | 1° |
| 2026-04-26 19:44 | 39.54751 | 2.73955 | 36 ft | 6 kts | 354° |
| 2026-04-26 19:45 | 39.54810 | 2.73944 | 35 ft | 11 kts | 353° |
| 2026-04-26 19:45 | 39.54879 | 2.73942 | 34 ft | 9 kts | 3° |
| 2026-04-26 19:45 | 39.54940 | 2.73923 | 34 ft | 10 kts | 330° |
| 2026-04-26 19:45 | 39.54984 | 2.73882 | 33 ft | 2 kts | 303° |
| 2026-04-26 19:46 | 39.54987 | 2.73872 | 33 ft | 1 kts | 274° |
| 2026-04-26 19:46 | 39.54986 | 2.73866 | 33 ft | 2 kts | 260° |
| 2026-04-26 19:46 | 39.54976 | 2.73839 | 33 ft | 6 kts | 240° |
| 2026-04-26 19:46 | 39.54956 | 2.73792 | 34 ft | 0 kts | 240° |
| 2026-04-26 19:47 | 39.54954 | 2.73788 | 34 ft | 1 kts | 240° |
| 2026-04-26 19:47 | 39.54953 | 2.73785 | 34 ft | 0 kts | 240° |